sensor_id;sensor_type;location;lat;lon;timestamp;P1;durP1;ratioP1;P2;durP2;ratioP2
1651;SDS011;823;49.028;8.454;2022-10-19T00:03:45;15.70;;;8.33;;
1651;SDS011;823;49.028;8.454;2022-10-19T00:08:47;23.87;;;9.20;;
1651;SDS011;823;49.028;8.454;2022-10-19T00:13:47;17.53;;;7.23;;
1651;SDS011;823;49.028;8.454;2022-10-19T00:18:48;12.23;;;7.50;;
1651;SDS011;823;49.028;8.454;2022-10-19T00:23:49;18.27;;;8.70;;
1651;SDS011;823;49.028;8.454;2022-10-19T00:28:51;13.40;;;6.60;;
1651;SDS011;823;49.028;8.454;2022-10-19T00:33:52;20.93;;;7.40;;
1651;SDS011;823;49.028;8.454;2022-10-19T00:38:54;10.87;;;5.83;;
1651;SDS011;823;49.028;8.454;2022-10-19T00:44:00;13.40;;;6.97;;
1651;SDS011;823;49.028;8.454;2022-10-19T00:49:06;15.60;;;6.63;;
1651;SDS011;823;49.028;8.454;2022-10-19T00:54:09;22.83;;;6.20;;
1651;SDS011;823;49.028;8.454;2022-10-19T00:59:11;15.87;;;7.23;;
1651;SDS011;823;49.028;8.454;2022-10-19T01:04:14;24.67;;;8.43;;
1651;SDS011;823;49.028;8.454;2022-10-19T01:09:14;21.93;;;8.10;;
1651;SDS011;823;49.028;8.454;2022-10-19T01:25:23;14.17;;;8.07;;
1651;SDS011;823;49.028;8.454;2022-10-19T01:41:19;17.87;;;8.73;;
1651;SDS011;823;49.028;8.454;2022-10-19T01:51:32;16.57;;;8.10;;
1651;SDS011;823;49.028;8.454;2022-10-19T01:56:36;16.30;;;7.23;;
1651;SDS011;823;49.028;8.454;2022-10-19T02:01:42;15.97;;;8.50;;
1651;SDS011;823;49.028;8.454;2022-10-19T02:06:45;27.53;;;10.27;;
1651;SDS011;823;49.028;8.454;2022-10-19T02:11:49;14.57;;;8.33;;
1651;SDS011;823;49.028;8.454;2022-10-19T02:17:00;16.40;;;8.83;;
1651;SDS011;823;49.028;8.454;2022-10-19T02:22:04;17.90;;;8.73;;
1651;SDS011;823;49.028;8.454;2022-10-19T02:27:05;13.67;;;7.70;;
1651;SDS011;823;49.028;8.454;2022-10-19T02:32:07;20.37;;;11.00;;
1651;SDS011;823;49.028;8.454;2022-10-19T02:37:08;28.20;;;12.17;;
1651;SDS011;823;49.028;8.454;2022-10-19T02:47:11;25.73;;;12.95;;
1651;SDS011;823;49.028;8.454;2022-10-19T02:52:17;23.60;;;11.70;;
1651;SDS011;823;49.028;8.454;2022-10-19T02:57:22;25.47;;;11.63;;
1651;SDS011;823;49.028;8.454;2022-10-19T03:02:23;25.87;;;13.50;;
1651;SDS011;823;49.028;8.454;2022-10-19T03:07:24;31.77;;;15.20;;
1651;SDS011;823;49.028;8.454;2022-10-19T03:12:25;37.03;;;14.27;;
1651;SDS011;823;49.028;8.454;2022-10-19T03:17:25;32.77;;;14.20;;
1651;SDS011;823;49.028;8.454;2022-10-19T03:22:26;31.33;;;14.03;;
1651;SDS011;823;49.028;8.454;2022-10-19T03:27:26;35.33;;;13.80;;
1651;SDS011;823;49.028;8.454;2022-10-19T03:32:26;23.03;;;9.80;;
1651;SDS011;823;49.028;8.454;2022-10-19T03:37:27;19.20;;;10.07;;
1651;SDS011;823;49.028;8.454;2022-10-19T03:42:27;24.27;;;9.83;;
1651;SDS011;823;49.028;8.454;2022-10-19T03:47:27;17.00;;;9.27;;
1651;SDS011;823;49.028;8.454;2022-10-19T03:52:28;21.63;;;9.20;;
1651;SDS011;823;49.028;8.454;2022-10-19T03:57:28;23.53;;;8.80;;
1651;SDS011;823;49.028;8.454;2022-10-19T04:02:29;15.33;;;8.67;;
1651;SDS011;823;49.028;8.454;2022-10-19T04:07:29;31.13;;;10.07;;
1651;SDS011;823;49.028;8.454;2022-10-19T04:12:29;20.67;;;10.47;;
1651;SDS011;823;49.028;8.454;2022-10-19T04:17:30;18.07;;;9.13;;
1651;SDS011;823;49.028;8.454;2022-10-19T04:22:30;21.13;;;10.20;;
1651;SDS011;823;49.028;8.454;2022-10-19T04:27:30;25.97;;;9.80;;
1651;SDS011;823;49.028;8.454;2022-10-19T04:32:31;23.10;;;9.70;;
1651;SDS011;823;49.028;8.454;2022-10-19T04:37:31;34.87;;;12.20;;
1651;SDS011;823;49.028;8.454;2022-10-19T04:42:31;31.43;;;11.80;;
1651;SDS011;823;49.028;8.454;2022-10-19T04:47:31;34.92;;;12.82;;
1651;SDS011;823;49.028;8.454;2022-10-19T04:52:32;33.10;;;13.40;;
1651;SDS011;823;49.028;8.454;2022-10-19T04:57:34;30.93;;;12.17;;
1651;SDS011;823;49.028;8.454;2022-10-19T05:02:34;35.80;;;12.60;;
1651;SDS011;823;49.028;8.454;2022-10-19T05:07:34;38.43;;;14.33;;
1651;SDS011;823;49.028;8.454;2022-10-19T05:12:35;39.53;;;14.90;;
1651;SDS011;823;49.028;8.454;2022-10-19T05:17:35;39.23;;;14.03;;
1651;SDS011;823;49.028;8.454;2022-10-19T05:22:38;38.70;;;14.18;;
1651;SDS011;823;49.028;8.454;2022-10-19T05:27:39;40.13;;;14.13;;
1651;SDS011;823;49.028;8.454;2022-10-19T05:32:39;40.10;;;15.57;;
1651;SDS011;823;49.028;8.454;2022-10-19T05:37:40;33.57;;;13.60;;
1651;SDS011;823;49.028;8.454;2022-10-19T05:42:40;27.48;;;12.73;;
1651;SDS011;823;49.028;8.454;2022-10-19T05:47:40;37.30;;;14.20;;
1651;SDS011;823;49.028;8.454;2022-10-19T05:52:41;36.77;;;14.67;;
1651;SDS011;823;49.028;8.454;2022-10-19T05:57:41;29.37;;;12.57;;
1651;SDS011;823;49.028;8.454;2022-10-19T06:02:41;32.28;;;12.60;;
1651;SDS011;823;49.028;8.454;2022-10-19T06:07:42;32.33;;;13.00;;
1651;SDS011;823;49.028;8.454;2022-10-19T06:12:42;26.60;;;11.57;;
1651;SDS011;823;49.028;8.454;2022-10-19T06:17:42;29.47;;;11.03;;
1651;SDS011;823;49.028;8.454;2022-10-19T06:22:43;24.80;;;11.03;;
1651;SDS011;823;49.028;8.454;2022-10-19T06:27:43;22.57;;;10.93;;
1651;SDS011;823;49.028;8.454;2022-10-19T06:32:43;24.10;;;10.10;;
1651;SDS011;823;49.028;8.454;2022-10-19T06:37:44;23.40;;;9.63;;
1651;SDS011;823;49.028;8.454;2022-10-19T06:42:44;26.53;;;10.30;;
1651;SDS011;823;49.028;8.454;2022-10-19T06:47:45;23.47;;;10.00;;
1651;SDS011;823;49.028;8.454;2022-10-19T06:52:45;21.57;;;10.53;;
1651;SDS011;823;49.028;8.454;2022-10-19T06:57:45;28.80;;;10.60;;
1651;SDS011;823;49.028;8.454;2022-10-19T07:02:46;20.90;;;9.33;;
1651;SDS011;823;49.028;8.454;2022-10-19T07:07:46;21.57;;;10.03;;
1651;SDS011;823;49.028;8.454;2022-10-19T07:12:46;21.27;;;11.30;;
1651;SDS011;823;49.028;8.454;2022-10-19T07:17:47;23.30;;;9.45;;
1651;SDS011;823;49.028;8.454;2022-10-19T07:22:47;23.08;;;9.30;;
1651;SDS011;823;49.028;8.454;2022-10-19T07:27:47;26.00;;;10.40;;
1651;SDS011;823;49.028;8.454;2022-10-19T07:32:48;31.03;;;10.87;;
1651;SDS011;823;49.028;8.454;2022-10-19T07:37:48;26.90;;;11.13;;
1651;SDS011;823;49.028;8.454;2022-10-19T07:42:48;31.23;;;11.23;;
1651;SDS011;823;49.028;8.454;2022-10-19T07:47:49;26.13;;;12.02;;
1651;SDS011;823;49.028;8.454;2022-10-19T07:52:53;37.43;;;11.00;;
1651;SDS011;823;49.028;8.454;2022-10-19T07:57:53;25.23;;;10.13;;
1651;SDS011;823;49.028;8.454;2022-10-19T08:02:54;28.87;;;11.63;;
1651;SDS011;823;49.028;8.454;2022-10-19T08:07:54;20.17;;;10.40;;
1651;SDS011;823;49.028;8.454;2022-10-19T08:12:54;23.17;;;10.57;;
1651;SDS011;823;49.028;8.454;2022-10-19T08:17:55;23.50;;;10.60;;
1651;SDS011;823;49.028;8.454;2022-10-19T08:22:55;21.27;;;11.00;;
1651;SDS011;823;49.028;8.454;2022-10-19T08:27:57;19.30;;;9.77;;
1651;SDS011;823;49.028;8.454;2022-10-19T08:32:57;22.70;;;10.27;;
1651;SDS011;823;49.028;8.454;2022-10-19T08:37:57;21.87;;;10.00;;
1651;SDS011;823;49.028;8.454;2022-10-19T08:53:30;20.47;;;8.80;;
1651;SDS011;823;49.028;8.454;2022-10-19T09:04:27;26.60;;;9.37;;
1651;SDS011;823;49.028;8.454;2022-10-19T09:10:45;18.13;;;9.40;;
1651;SDS011;823;49.028;8.454;2022-10-19T09:15:18;15.83;;;8.03;;
1651;SDS011;823;49.028;8.454;2022-10-19T09:20:38;18.20;;;8.67;;
1651;SDS011;823;49.028;8.454;2022-10-19T09:25:43;22.00;;;8.33;;
1651;SDS011;823;49.028;8.454;2022-10-19T09:30:43;21.50;;;8.10;;
1651;SDS011;823;49.028;8.454;2022-10-19T09:35:47;19.33;;;7.60;;
1651;SDS011;823;49.028;8.454;2022-10-19T09:40:48;16.47;;;7.70;;
1651;SDS011;823;49.028;8.454;2022-10-19T09:45:53;13.30;;;7.97;;
1651;SDS011;823;49.028;8.454;2022-10-19T09:50:59;15.37;;;6.93;;
1651;SDS011;823;49.028;8.454;2022-10-19T09:56:07;18.20;;;8.53;;
1651;SDS011;823;49.028;8.454;2022-10-19T10:06:31;16.50;;;8.73;;
1651;SDS011;823;49.028;8.454;2022-10-19T10:11:35;18.63;;;9.27;;
1651;SDS011;823;49.028;8.454;2022-10-19T10:16:37;17.07;;;8.70;;
1651;SDS011;823;49.028;8.454;2022-10-19T10:26:50;13.07;;;7.37;;
1651;SDS011;823;49.028;8.454;2022-10-19T10:31:53;18.83;;;8.50;;
1651;SDS011;823;49.028;8.454;2022-10-19T10:36:57;16.47;;;8.00;;
1651;SDS011;823;49.028;8.454;2022-10-19T10:42:00;18.73;;;8.47;;
1651;SDS011;823;49.028;8.454;2022-10-19T10:47:11;12.00;;;7.20;;
1651;SDS011;823;49.028;8.454;2022-10-19T10:52:14;13.57;;;7.70;;
1651;SDS011;823;49.028;8.454;2022-10-19T10:57:17;14.67;;;6.70;;
1651;SDS011;823;49.028;8.454;2022-10-19T11:07:55;9.53;;;6.27;;
1651;SDS011;823;49.028;8.454;2022-10-19T11:18:32;8.73;;;4.00;;
1651;SDS011;823;49.028;8.454;2022-10-19T11:28:56;6.33;;;3.50;;
1651;SDS011;823;49.028;8.454;2022-10-19T11:34:36;7.50;;;3.47;;
1651;SDS011;823;49.028;8.454;2022-10-19T11:39:44;8.13;;;3.40;;
1651;SDS011;823;49.028;8.454;2022-10-19T11:55:36;6.73;;;2.33;;
1651;SDS011;823;49.028;8.454;2022-10-19T12:01:36;7.03;;;2.70;;
1651;SDS011;823;49.028;8.454;2022-10-19T12:16:58;7.27;;;2.70;;
1651;SDS011;823;49.028;8.454;2022-10-19T12:22:04;2.90;;;1.70;;
1651;SDS011;823;49.028;8.454;2022-10-19T12:27:11;8.70;;;2.43;;
1651;SDS011;823;49.028;8.454;2022-10-19T12:32:15;2.10;;;1.73;;
1651;SDS011;823;49.028;8.454;2022-10-19T12:48:16;2.73;;;1.53;;
1651;SDS011;823;49.028;8.454;2022-10-19T13:03:41;3.17;;;1.97;;
1651;SDS011;823;49.028;8.454;2022-10-19T13:08:47;3.00;;;1.53;;
1651;SDS011;823;49.028;8.454;2022-10-19T13:24:34;5.13;;;1.88;;
1651;SDS011;823;49.028;8.454;2022-10-19T13:34:36;1.90;;;1.30;;
1651;SDS011;823;49.028;8.454;2022-10-19T13:39:37;1.83;;;1.40;;
1651;SDS011;823;49.028;8.454;2022-10-19T13:44:38;3.60;;;1.60;;
1651;SDS011;823;49.028;8.454;2022-10-19T14:01:01;2.87;;;1.67;;
1651;SDS011;823;49.028;8.454;2022-10-19T14:11:34;2.47;;;1.87;;
1651;SDS011;823;49.028;8.454;2022-10-19T14:22:00;8.50;;;2.20;;
1651;SDS011;823;49.028;8.454;2022-10-19T14:27:21;4.70;;;2.27;;
1651;SDS011;823;49.028;8.454;2022-10-19T14:32:24;4.07;;;2.83;;
1651;SDS011;823;49.028;8.454;2022-10-19T14:37:26;7.53;;;2.10;;
1651;SDS011;823;49.028;8.454;2022-10-19T14:42:37;4.60;;;2.40;;
1651;SDS011;823;49.028;8.454;2022-10-19T14:47:58;6.03;;;2.40;;
1651;SDS011;823;49.028;8.454;2022-10-19T14:53:49;7.97;;;3.30;;
1651;SDS011;823;49.028;8.454;2022-10-19T14:58:50;4.83;;;2.50;;
1651;SDS011;823;49.028;8.454;2022-10-19T15:03:55;4.17;;;2.00;;
1651;SDS011;823;49.028;8.454;2022-10-19T15:09:00;4.63;;;2.60;;
1651;SDS011;823;49.028;8.454;2022-10-19T15:14:07;3.60;;;2.40;;
1651;SDS011;823;49.028;8.454;2022-10-19T15:19:30;5.40;;;2.23;;
1651;SDS011;823;49.028;8.454;2022-10-19T15:24:31;2.87;;;2.20;;
1651;SDS011;823;49.028;8.454;2022-10-19T15:29:31;4.63;;;2.50;;
1651;SDS011;823;49.028;8.454;2022-10-19T15:34:31;5.10;;;2.60;;
1651;SDS011;823;49.028;8.454;2022-10-19T15:39:32;8.40;;;2.43;;
1651;SDS011;823;49.028;8.454;2022-10-19T15:44:42;3.20;;;1.80;;
1651;SDS011;823;49.028;8.454;2022-10-19T15:54:49;5.20;;;3.30;;
1651;SDS011;823;49.028;8.454;2022-10-19T15:59:55;4.10;;;2.93;;
1651;SDS011;823;49.028;8.454;2022-10-19T16:04:56;7.40;;;3.57;;
1651;SDS011;823;49.028;8.454;2022-10-19T16:09:57;3.67;;;2.97;;
1651;SDS011;823;49.028;8.454;2022-10-19T16:14:57;4.00;;;2.73;;
1651;SDS011;823;49.028;8.454;2022-10-19T16:19:58;3.93;;;2.37;;
1651;SDS011;823;49.028;8.454;2022-10-19T16:24:58;3.33;;;2.85;;
1651;SDS011;823;49.028;8.454;2022-10-19T16:29:58;7.05;;;3.40;;
1651;SDS011;823;49.028;8.454;2022-10-19T16:34:58;3.77;;;2.90;;
1651;SDS011;823;49.028;8.454;2022-10-19T16:39:59;6.00;;;3.60;;
1651;SDS011;823;49.028;8.454;2022-10-19T16:44:59;3.37;;;2.73;;
1651;SDS011;823;49.028;8.454;2022-10-19T16:50:00;8.07;;;3.80;;
1651;SDS011;823;49.028;8.454;2022-10-19T16:55:02;10.50;;;3.27;;
1651;SDS011;823;49.028;8.454;2022-10-19T17:00:03;6.40;;;3.43;;
1651;SDS011;823;49.028;8.454;2022-10-19T17:05:05;6.67;;;4.00;;
1651;SDS011;823;49.028;8.454;2022-10-19T17:10:06;8.10;;;3.10;;
1651;SDS011;823;49.028;8.454;2022-10-19T17:15:06;7.80;;;4.20;;
1651;SDS011;823;49.028;8.454;2022-10-19T17:20:08;6.90;;;3.70;;
1651;SDS011;823;49.028;8.454;2022-10-19T17:25:10;8.20;;;3.80;;
1651;SDS011;823;49.028;8.454;2022-10-19T17:30:10;8.07;;;4.10;;
1651;SDS011;823;49.028;8.454;2022-10-19T17:35:11;8.37;;;4.77;;
1651;SDS011;823;49.028;8.454;2022-10-19T17:40:11;10.23;;;4.03;;
1651;SDS011;823;49.028;8.454;2022-10-19T17:45:11;19.33;;;5.30;;
1651;SDS011;823;49.028;8.454;2022-10-19T17:50:12;16.33;;;4.30;;
1651;SDS011;823;49.028;8.454;2022-10-19T17:55:12;6.53;;;4.37;;
1651;SDS011;823;49.028;8.454;2022-10-19T18:00:13;5.40;;;4.07;;
1651;SDS011;823;49.028;8.454;2022-10-19T18:05:13;9.60;;;5.07;;
1651;SDS011;823;49.028;8.454;2022-10-19T18:10:14;7.90;;;4.00;;
1651;SDS011;823;49.028;8.454;2022-10-19T18:15:14;9.67;;;4.60;;
1651;SDS011;823;49.028;8.454;2022-10-19T18:20:15;8.33;;;4.67;;
1651;SDS011;823;49.028;8.454;2022-10-19T18:25:15;6.20;;;4.40;;
1651;SDS011;823;49.028;8.454;2022-10-19T18:30:17;7.40;;;5.10;;
1651;SDS011;823;49.028;8.454;2022-10-19T18:35:17;9.23;;;4.97;;
1651;SDS011;823;49.028;8.454;2022-10-19T18:40:17;9.93;;;5.83;;
1651;SDS011;823;49.028;8.454;2022-10-19T18:45:18;9.37;;;4.83;;
1651;SDS011;823;49.028;8.454;2022-10-19T18:50:18;10.87;;;5.87;;
1651;SDS011;823;49.028;8.454;2022-10-19T18:55:18;8.70;;;5.80;;
1651;SDS011;823;49.028;8.454;2022-10-19T19:00:19;11.70;;;7.13;;
1651;SDS011;823;49.028;8.454;2022-10-19T19:05:19;12.03;;;6.30;;
1651;SDS011;823;49.028;8.454;2022-10-19T19:10:20;14.77;;;7.50;;
1651;SDS011;823;49.028;8.454;2022-10-19T19:15:20;12.90;;;7.83;;
1651;SDS011;823;49.028;8.454;2022-10-19T19:20:21;13.35;;;7.60;;
1651;SDS011;823;49.028;8.454;2022-10-19T19:25:21;16.50;;;8.33;;
1651;SDS011;823;49.028;8.454;2022-10-19T19:30:21;14.00;;;7.93;;
1651;SDS011;823;49.028;8.454;2022-10-19T19:35:22;17.70;;;7.60;;
1651;SDS011;823;49.028;8.454;2022-10-19T19:40:22;15.77;;;8.37;;
1651;SDS011;823;49.028;8.454;2022-10-19T19:45:22;14.02;;;7.93;;
1651;SDS011;823;49.028;8.454;2022-10-19T19:50:23;16.23;;;8.27;;
1651;SDS011;823;49.028;8.454;2022-10-19T19:55:24;17.23;;;8.80;;
1651;SDS011;823;49.028;8.454;2022-10-19T20:00:25;20.03;;;9.47;;
1651;SDS011;823;49.028;8.454;2022-10-19T20:05:25;15.97;;;8.60;;
1651;SDS011;823;49.028;8.454;2022-10-19T20:10:27;15.17;;;9.00;;
1651;SDS011;823;49.028;8.454;2022-10-19T20:15:27;21.03;;;9.63;;
1651;SDS011;823;49.028;8.454;2022-10-19T20:20:28;22.67;;;10.25;;
1651;SDS011;823;49.028;8.454;2022-10-19T20:25:28;19.67;;;9.37;;
1651;SDS011;823;49.028;8.454;2022-10-19T20:30:28;18.60;;;8.73;;
1651;SDS011;823;49.028;8.454;2022-10-19T20:35:29;20.90;;;8.83;;
1651;SDS011;823;49.028;8.454;2022-10-19T20:40:29;20.55;;;9.73;;
1651;SDS011;823;49.028;8.454;2022-10-19T20:45:29;21.83;;;9.40;;
1651;SDS011;823;49.028;8.454;2022-10-19T20:50:30;22.90;;;10.50;;
1651;SDS011;823;49.028;8.454;2022-10-19T20:55:31;19.15;;;9.80;;
1651;SDS011;823;49.028;8.454;2022-10-19T21:00:32;17.10;;;8.60;;
1651;SDS011;823;49.028;8.454;2022-10-19T21:05:36;18.77;;;10.37;;
1651;SDS011;823;49.028;8.454;2022-10-19T21:10:36;18.70;;;8.70;;
1651;SDS011;823;49.028;8.454;2022-10-19T21:15:37;16.07;;;8.80;;
1651;SDS011;823;49.028;8.454;2022-10-19T21:20:37;20.40;;;10.40;;
1651;SDS011;823;49.028;8.454;2022-10-19T21:25:37;17.05;;;8.88;;
1651;SDS011;823;49.028;8.454;2022-10-19T21:30:38;19.47;;;8.87;;
1651;SDS011;823;49.028;8.454;2022-10-19T21:35:38;14.87;;;9.53;;
1651;SDS011;823;49.028;8.454;2022-10-19T21:40:38;22.50;;;9.30;;
1651;SDS011;823;49.028;8.454;2022-10-19T21:45:39;19.55;;;8.95;;
1651;SDS011;823;49.028;8.454;2022-10-19T21:50:39;21.80;;;9.67;;
1651;SDS011;823;49.028;8.454;2022-10-19T21:55:39;16.67;;;9.27;;
1651;SDS011;823;49.028;8.454;2022-10-19T22:00:40;15.33;;;8.47;;
1651;SDS011;823;49.028;8.454;2022-10-19T22:05:47;12.97;;;8.23;;
1651;SDS011;823;49.028;8.454;2022-10-19T22:10:48;14.27;;;7.90;;
1651;SDS011;823;49.028;8.454;2022-10-19T22:15:49;14.33;;;7.70;;
1651;SDS011;823;49.028;8.454;2022-10-19T22:20:49;17.93;;;9.13;;
1651;SDS011;823;49.028;8.454;2022-10-19T22:25:49;14.70;;;9.60;;
1651;SDS011;823;49.028;8.454;2022-10-19T22:30:56;19.10;;;8.77;;
1651;SDS011;823;49.028;8.454;2022-10-19T22:35:58;17.60;;;9.00;;
1651;SDS011;823;49.028;8.454;2022-10-19T22:41:00;21.67;;;8.77;;
1651;SDS011;823;49.028;8.454;2022-10-19T22:46:00;17.83;;;8.67;;
1651;SDS011;823;49.028;8.454;2022-10-19T22:51:00;15.07;;;8.23;;
1651;SDS011;823;49.028;8.454;2022-10-19T22:56:01;18.43;;;8.67;;
1651;SDS011;823;49.028;8.454;2022-10-19T23:01:03;24.13;;;8.30;;
1651;SDS011;823;49.028;8.454;2022-10-19T23:06:09;14.90;;;8.20;;
1651;SDS011;823;49.028;8.454;2022-10-19T23:11:11;22.23;;;8.70;;
1651;SDS011;823;49.028;8.454;2022-10-19T23:16:11;14.83;;;7.80;;
1651;SDS011;823;49.028;8.454;2022-10-19T23:21:12;15.10;;;8.07;;
1651;SDS011;823;49.028;8.454;2022-10-19T23:26:14;19.10;;;9.37;;
1651;SDS011;823;49.028;8.454;2022-10-19T23:31:18;15.87;;;8.63;;
1651;SDS011;823;49.028;8.454;2022-10-19T23:36:23;18.33;;;8.27;;
1651;SDS011;823;49.028;8.454;2022-10-19T23:41:25;17.23;;;8.67;;
1651;SDS011;823;49.028;8.454;2022-10-19T23:46:26;20.50;;;8.80;;
1651;SDS011;823;49.028;8.454;2022-10-19T23:51:26;14.17;;;6.80;;
1651;SDS011;823;49.028;8.454;2022-10-19T23:56:28;16.37;;;8.40;;
